Hlavní strana
METAR-TAF:

METAR-TAF

Letiště :

Brønnøysund, Norsko

zeměpisná šířka: 65-28N, zeměpisná délka: 012-13E, výška: 0 m

Aktuální stav počasí

Zpráva byla vytvořena před 24 minutami, v 00:50 UTC
Severní vítr 3 kt, proměnlivý mezi západním a severovýchodním
Teplota 9°C
Vlhkost vzduchu 93%
Tlak 1014 hPa
Viditelnost 10 km a více

METAR: ENBN 220050Z AUTO 35003KT 280V040 9999NDV NCD 09/08 Q1014

Čas: 03:14 (01:14 UTC)

Předpověď počasí

Zpráva byla vytvořena před 20 hodinami a 14 minutami, v 05:00 UTC
Předpověď platná od 21 v 06 UTC do 21 v 15 UTC
Západoseverozápadní vítr 8 kt
Viditelnost 10 km a více
Polojasno ve výšce 1500 ft, Vertikální cumulus.
Oblačno až skoro zataženo ve výšce 3000 ft
slabé dešťové přeháňky
Pravděpodobnost 30% :
Dočasný
od 21 v 06 UTC do 21 v 12 UTC
Polojasno ve výšce 2000 ft, Cumulonimbus.
dešťové přeháňky

TAF: ENBN 210500Z 2106/2115 30008KT 9999 -SHRA SCT015TCU BKN030 PROB30 TEMPO 2106/2112 SHRA SCT020CB

Stav a předpovědi počasí z více než 4 000 letišť (zprávy METAR a TAF).

Červené a žluté tečky na mapě představují dostupné meteorologické stanice.

Když kurzor umístíte na tečku, zobrazí se název stanice.

Pak kliknutím zobrazíte stav a předpověď počasí.

Chcete-li změnit mapu, kliknutím na zelené tlačítko se znaménkem +mapu přiblížíte, kliknutím na zelené tlačítko se znaménkem – mapu oddálíte a kliknutím na zelené šipky přejdete na sousední mapy.


METAR-TAF: